Kezdőlap
METAR-TAF:

METAR-TAF

Repülőterek :

Rolla National Airport

Rolla, Missouri, Amerikai Egyesült Államok

földrajzi szélesség: 38-07-55N, földrajzi hosszúság: 091-45-55W, magasság: 350 m

Jelenlegi meteorológiai megfigyelések

A jelentés 33 perccel ezelõtt készült, 10:53 UTC
Északkeleti szél 4 kt
Hőmérséklet 18°C
Páratartalom 94%
Légköri nyomás 1020 hPa
Látótávolság: 16.1 km
Kevés felhő 3600 lábon
Szórványos felhőzet 8500 lábon
Szakadozott felhőzet 11000 lábon

METAR: KVIH 211053Z AUTO 04004KT 10SM FEW036 SCT085 BKN110 18/17 A3011 RMK AO2 RAE28 SLP188 P0005 T01830172

Idő: 06:26 (11:26 UTC)


TAF: hiányzik

Meteorológiai megfigyelések és előrejelzések több, mint 4000 repülőtéren (METAR és TAF jelentéseket).

A térképen piros és sárga pontok jelzik az elérhető meteorológiai állomásokat.

Mozgassa az egeret a pont fölött, hogy megjelenjen az állomás neve.

Azután kattintson az időjárási megfigyelések és előrejelzések megtekintéséhez.

A térkép megváltoztatása: kattintson a fekete keresztel jelölt zöld gombra ráközelítéshez, a vonallal jelölt zöld gombra távolításhoz, vagy a zöld nyilakra a szomszédos térképek eléréséhez.


METAR-TAF: